Home > Products > Valid Products > TAF

000
FTUS43 KILX 301700
TAFBMI
TAF
KBMI 301740Z 3018/0118 06011KT P6SM SCT015
      TEMPO 3018/3019 BKN020
     FM010000 09008KT P6SM SCT250
     FM010900 11007KT 5SM BR SCT250
     FM011400 15010KT P6SM SCT040=



000
FTUS43 KILX 301700
TAFSPI
TAF
KSPI 301740Z 3018/0118 06006KT P6SM SCT010
      TEMPO 3018/3019 BKN012
     FM301900 06007KT P6SM SCT020
     FM010000 07005KT P6SM SCT250
     FM010900 12004KT 4SM BR SCT250
      TEMPO 0109/0113 2SM BR
     FM011400 15008KT P6SM SCT045=



000
FTUS43 KILX 301700
TAFDEC
TAF
KDEC 301740Z 3018/0118 05008KT P6SM SCT020
     FM010000 07005KT P6SM SCT250
     FM010900 10004KT 4SM BR SCT250
      TEMPO 0109/0113 2SM BR
     FM011400 14008KT P6SM SCT045=



000
FTUS43 KILX 301700
TAFCMI
TAF
KCMI 301740Z 3018/0118 04008KT P6SM SCT025
     FM010000 07006KT P6SM SCT250
     FM010900 09005KT 5SM BR SCT250
     FM011400 13008KT P6SM SCT040=



000
FTUS43 KILX 301700
TAFPIA
TAF
KPIA 301740Z 3018/0118 05009KT P6SM SCT015
      TEMPO 3018/3019 BKN020
     FM010000 08006KT P6SM SCT250
     FM010900 10006KT 4SM BR SCT250
     FM011400 15009KT P6SM SCT040=



000
FTUS43 KILX 301600 AAD
TAFCMI
TAF AMD
KCMI 301642Z 3017/0112 03010KT P6SM SCT015
      TEMPO 3017/3018 BKN015
     FM301800 05008KT P6SM SCT020
     FM010000 07007KT P6SM SKC=



000
FTUS43 KILX 301600 AAC
TAFCMI
TAF AMD
KCMI 301612Z 3016/0112 04010KT P6SM BKN007
      TEMPO 3016/3018 SCT010
     FM301800 05008KT P6SM SCT020
     FM010000 07007KT P6SM SKC=



000
FTUS43 KILX 301600 AAG
TAFDEC
TAF AMD
KDEC 301611Z 3016/0112 06010KT P6SM OVC010
      TEMPO 3016/3018 SCT015
     FM301800 05009KT P6SM SCT020=



000
FTUS43 KILX 301600 AAD
TAFSPI
TAF AMD
KSPI 301610Z 3016/0112 06009KT P6SM OVC007
      TEMPO 3017/3018 BKN015
     FM301800 06006KT P6SM BKN015
      TEMPO 3018/3019 SCT015
     FM301900 07006KT P6SM SCT020=



000
FTUS43 KILX 301600 AAC
TAFBMI
TAF AMD
KBMI 301609Z 3016/0112 06011KT P6SM SCT015
      TEMPO 3016/3018 BKN015
     FM301800 06012KT P6SM SCT020
     FM010000 07009KT P6SM SCT025=



000
FTUS43 KILX 301600 AAD
TAFPIA
TAF AMD
KPIA 301608Z 3016/0112 06010KT P6SM OVC012
      TEMPO 3017/3019 SCT015
     FM301900 08008KT P6SM SCT020
     FM010000 08006KT P6SM SCT025=



000
FTUS43 KILX 301500 AAC
TAFPIA
TAF AMD
KPIA 301518Z 3015/0112 05010KT P6SM OVC009
      TEMPO 3015/3017 OVC012
     FM301700 06009KT P6SM BKN015
     FM301900 08008KT P6SM BKN020
     FM010000 08006KT P6SM SCT025=



000
FTUS43 KILX 301500 AAB
TAFCMI
TAF AMD
KCMI 301517Z 3015/0112 04010KT P6SM OVC007
      TEMPO 3015/3016 BKN010
     FM301600 04009KT P6SM BKN015
     FM301800 05008KT P6SM BKN025
     FM010000 07007KT P6SM SKC=



000
FTUS43 KILX 301500 AAB
TAFBMI
TAF AMD
KBMI 301517Z 3015/0112 06011KT P6SM OVC008
      TEMPO 3015/3017 BKN012
     FM301700 06012KT P6SM BKN015
     FM301900 06010KT P6SM BKN020
     FM010000 07009KT P6SM SCT025=



000
FTUS43 KILX 301500 AAF
TAFDEC
TAF AMD
KDEC 301516Z 3015/0112 06010KT P6SM OVC006
      TEMPO 3015/3017 5SM BR OVC010
     FM301700 05009KT P6SM BKN020
     FM301900 07006KT P6SM SCT020=



000
FTUS43 KILX 301500 AAC
TAFSPI
TAF AMD
KSPI 301515Z 3015/0112 06010KT 6SM BR OVC005
      TEMPO 3015/3017 5SM BR OVC008
     FM301700 06006KT P6SM BKN015
     FM301900 07006KT P6SM SCT020=



000
FTUS43 KILX 301400 AAE
TAFDEC
TAF AMD
KDEC 301453Z 3015/0112 06010KT 6SM BR OVC005
      TEMPO 3015/3017 5SM BR OVC010
     FM301700 05009KT P6SM BKN020
     FM301900 07006KT P6SM SCT020=



000
FTUS43 KILX 301400 AAD
TAFDEC
TAF AMD
KDEC 301400Z 3014/0112 06010KT 6SM BR OVC005
      TEMPO 3014/3015 5SM BR OVC009
     FM301500 05008KT 4SM BR OVC009
     FM301700 05009KT P6SM BKN020
     FM301900 07006KT P6SM SCT020=



000
FTUS43 KILX 301400 AAB
TAFSPI
TAF AMD
KSPI 301400Z 3014/0112 06010KT 4SM BR OVC003
      TEMPO 3014/3016 6SM BR OVC007
     FM301600 06006KT P6SM BKN015
     FM301800 07006KT P6SM SCT020=



000
FTUS43 KILX 301300 AAC
TAFDEC
TAF AMD
KDEC 301328Z 3013/0112 05010KT 3SM BR OVC004
      TEMPO 3013/3015 6SM BR OVC008
     FM301500 05008KT 4SM BR OVC006
     FM301700 05009KT P6SM BKN020
     FM301900 07006KT P6SM SCT020=



000
FTUS43 KILX 301200 AAB
TAFPIA
TAF AMD
KPIA 301256Z 3013/0112 05012KT P6SM OVC009
     FM301500 06009KT P6SM BKN015
     FM301800 08008KT P6SM BKN020
     FM010000 08006KT P6SM SCT025=



000
FTUS43 KILX 301200 AAB
TAFDEC
TAF AMD
KDEC 301222Z 3012/0112 03010KT 2SM BR OVC002
     FM301400 05008KT 4SM BR OVC006
     FM301600 05009KT P6SM BKN020
     FM301900 07006KT P6SM SCT020=



000
FTUS43 KILX 301200 AAA
TAFCMI
TAF AMD
KCMI 301222Z 3012/0112 04010KT P6SM OVC006
     FM301600 04009KT P6SM BKN015
     FM301800 05008KT P6SM BKN025
     FM010000 07007KT P6SM SKC=



000
FTUS43 KILX 301200 AAA
TAFPIA
TAF AMD
KPIA 301222Z 3012/0112 08008KT P6SM OVC010
     FM301500 06009KT P6SM BKN015
     FM301800 08008KT P6SM BKN020
     FM010000 08006KT P6SM SCT025=



000
FTUS43 KILX 301100 RRA
TAFPIA
TAF
KPIA 301143Z 3012/0112 05011KT P6SM OVC008
     FM301500 06009KT P6SM BKN012
     FM301800 08008KT P6SM BKN020
     FM010000 08006KT P6SM SCT025=



000
FTUS43 KILX 301100 RRA
TAFBMI
TAF
KBMI 301143Z 3012/0112 06014KT P6SM OVC006
     FM301500 06012KT P6SM SCT006 BKN010
     FM301900 06010KT P6SM BKN020
     FM010000 07009KT P6SM SCT025=



000
FTUS43 KILX 301100 RRA
TAFSPI
TAF
KSPI 301143Z 3012/0112 04007KT 1/2SM FG VV002
      TEMPO 3012/3014 2SM BR OVC005
     FM301400 05010KT 4SM BR OVC008
     FM301600 06006KT P6SM BKN015
     FM301800 07006KT P6SM SCT020=



000
FTUS43 KILX 301100 RRA
TAFCMI
TAF
KCMI 301143Z 3012/0112 05010KT P6SM OVC005
     FM301600 04009KT P6SM BKN015
     FM301800 05008KT P6SM BKN025
     FM010000 07007KT P6SM SKC=



000
FTUS43 KILX 301100 RRA
TAFDEC
TAF
KDEC 301143Z 3012/0112 04006KT 1SM BR OVC002
     FM301400 05008KT 4SM BR OVC006
     FM301600 05009KT P6SM BKN020
     FM301900 07006KT P6SM SCT020=



000
FTUS43 KILX 301100 AAA
TAFDEC
TAF AMD
KDEC 301126Z 3011/0106 04006KT 1SM BR OVC002
     FM301300 05008KT 3SM BR OVC006
     FM301500 05009KT P6SM BKN020
     FM301800 07006KT P6SM SCT020=



000
FTUS43 KILX 301100 AAA
TAFSPI
TAF AMD
KSPI 301124Z 3011/0106 04007KT 1/2SM FG VV002
     FM301300 05010KT 4SM BR OVC006
     FM301500 06006KT P6SM BKN020
     FM301800 07006KT P6SM SCT020=



000
FTUS43 KILX 301100 AAA
TAFBMI
TAF AMD
KBMI 301123Z 3011/0106 06014KT P6SM OVC006
     FM301600 06010KT P6SM SCT006 BKN010
     FM301900 06010KT P6SM BKN020
     FM010000 07009KT P6SM SCT025=



000
FTUS43 KILX 301000 AAB
TAFBMI
TAF AMD
KBMI 301026Z 3010/0106 06011KT P6SM OVC004
     FM301600 06010KT P6SM SCT006 BKN010
     FM301900 06010KT P6SM BKN020
     FM010000 07009KT P6SM SCT025=



000
FTUS43 KILX 301000 AAB
TAFSPI
TAF AMD
KSPI 301009Z 3010/0106 05010KT 4SM BR OVC003
     FM301500 06006KT P6SM BKN020
     FM301800 07006KT P6SM SCT020=



000
FTUS43 KILX 301000 AAB
TAFCMI
TAF AMD
KCMI 301008Z 3010/0106 03012KT 5SM BR OVC006
      TEMPO 3010/3012 OVC040
     FM301600 04008KT P6SM BKN015
     FM301800 06008KT P6SM BKN025
     FM010000 07007KT P6SM SKC=



000
FTUS43 KILX 301000 AAA
TAFSPI
TAF AMD
KSPI 301007Z 3010/0106 05010KT P6SM OVC005
     FM301500 06006KT P6SM BKN020
     FM301800 07006KT P6SM SCT020=



000
FTUS43 KILX 301000 AAB
TAFPIA
TAF AMD
KPIA 301006Z 3010/0106 07010KT P6SM OVC008
     FM301500 06007KT P6SM BKN015
     FM301800 08008KT P6SM BKN025
     FM010000 09007KT P6SM SKC=



000
FTUS43 KILX 301000 AAB
TAFDEC
TAF AMD
KDEC 301006Z 3010/0106 04010KT 1/2SM FG VV002
     FM301300 05008KT 3SM BR OVC006
     FM301500 05009KT P6SM BKN020
     FM301800 07006KT P6SM SCT020=



000
FTUS43 KILX 300800 AAA
TAFPIA
TAF AMD
KPIA 300851Z 3009/0106 05013KT 4SM BR OVC005
     FM301500 06007KT P6SM BKN015
     FM301800 08008KT P6SM BKN025
     FM010000 09007KT P6SM SKC=



000
FTUS43 KILX 300800 AAA
TAFDEC
TAF AMD
KDEC 300851Z 3009/0106 04008KT 2SM BR BKN004
     FM301500 05009KT P6SM BKN020
     FM301800 07006KT P6SM SCT020=



000
FTUS43 KILX 300800 AAA
TAFCMI
TAF AMD
KCMI 300816Z 3008/0106 03009KT 1SM BR OVC002
     FM301300 04008KT 5SM BR OVC006
     FM301600 04008KT P6SM BKN015
     FM301800 06008KT P6SM BKN025
     FM010000 07007KT P6SM SKC=



000
FTUS43 KILX 300600 AAA
TAFBMI
TAF AMD
KBMI 300625Z 3006/0106 04013G18KT 2SM BR OVC002
      TEMPO 3006/3009 1SM BR OVC001
     FM301600 06010KT P6SM SCT006 BKN012
     FM301900 06010KT P6SM BKN020
     FM010000 07009KT P6SM SCT025=



000
FTUS43 KILX 300500
TAFCMI
TAF
KCMI 300520Z 3006/0106 03012G17KT P6SM SCT080
     FM300700 03012KT 5SM BR BKN007 OVC015
     FM301600 04008KT P6SM BKN015
     FM301800 06008KT P6SM BKN025
     FM010000 07007KT P6SM SKC=



000
FTUS43 KILX 300500
TAFDEC
TAF
KDEC 300520Z 3006/0106 VRB03KT P6SM SKC
     FM300800 03006KT P6SM SCT080
     FM300900 05012KT 5SM BR SCT006 OVC015
     FM301500 05009KT P6SM BKN020
     FM301800 07006KT P6SM SCT020=



000
FTUS43 KILX 300500
TAFBMI
TAF
KBMI 300520Z 3006/0106 04013G18KT P6SM SCT080
     FM300700 04013KT 5SM BR BKN006 OVC012
     FM301600 06010KT P6SM SCT006 BKN012
     FM301900 06010KT P6SM BKN020
     FM010000 07009KT P6SM SCT025=



000
FTUS43 KILX 300500
TAFPIA
TAF
KPIA 300520Z 3006/0106 05006KT P6SM SCT080
     FM300700 04008G17KT 5SM BR BKN007 OVC015
     FM301500 06007KT P6SM BKN015
     FM301800 08008KT P6SM BKN025
     FM010000 09007KT P6SM SKC=



000
FTUS43 KILX 300500
TAFSPI
TAF
KSPI 300520Z 3006/0106 VRB03KT P6SM SKC
     FM300800 03007KT P6SM SCT080
     FM300900 05010KT 5SM BR SCT006 OVC015
     FM301500 06006KT P6SM BKN020
     FM301800 07006KT P6SM SCT020=



000
FTUS43 KILX 292300
TAFPIA
TAF
KPIA 292327Z 3000/3024 VRB03KT P6SM SCT080
     FM300700 03008KT 4SM BR BKN009 OVC015
     FM301500 06007KT P6SM BKN015
     FM301800 08007KT P6SM SCT025=



000
FTUS43 KILX 292300
TAFSPI
TAF
KSPI 292327Z 3000/3024 33004KT P6SM SCT080
     FM301100 04007KT 5SM BR BKN015
     FM301500 06006KT P6SM BKN020
     FM301800 06006KT P6SM SCT020=



000
FTUS43 KILX 292300
TAFDEC
TAF
KDEC 292327Z 3000/3024 VRB03KT P6SM SCT080
     FM301000 04007KT 5SM BR BKN015
     FM301500 05009KT P6SM BKN020
     FM301800 06007KT P6SM SCT020=



000
FTUS43 KILX 292300
TAFBMI
TAF
KBMI 292327Z 3000/3024 29005KT P6SM SCT080
     FM300600 05009G17KT 4SM BR BKN007 OVC014
     FM301600 06010KT P6SM BKN014
     FM301900 07010KT P6SM SCT020=



000
FTUS43 KILX 292300
TAFCMI
TAF
KCMI 292327Z 3000/3024 VRB04KT P6SM SCT080
     FM300800 02009KT 4SM BR BKN010 OVC015
     FM301600 04008KT P6SM BKN015
     FM301800 05008KT P6SM SCT025=



000
FTUS43 KILX 291700
TAFSPI
TAF
KSPI 291732Z 2918/3018 34004KT P6SM SCT050 SCT250
     FM301200 05005KT 5SM BR BKN015
     FM301500 06006KT P6SM BKN025=



000
FTUS43 KILX 291700
TAFDEC
TAF
KDEC 291732Z 2918/3018 32004KT P6SM FEW060 SCT250
     FM301200 04005KT 5SM BR BKN015
     FM301500 05006KT P6SM BKN020=



000
FTUS43 KILX 291700
TAFBMI
TAF
KBMI 291732Z 2918/3018 30005KT P6SM FEW050 SCT250
     FM300900 05008KT 4SM BR BKN007 OVC014
     FM301600 06009KT P6SM BKN014=



000
FTUS43 KILX 291700
TAFPIA
TAF
KPIA 291732Z 2918/3018 29004KT P6SM SCT050 SCT250
     FM300800 05006KT 4SM BR BKN009 OVC015
     FM301500 07007KT P6SM BKN015=



000
FTUS43 KILX 291700
TAFCMI
TAF
KCMI 291732Z 2918/3018 33005KT P6SM FEW060 SCT250
     FM301000 03007KT 4SM BR BKN010 OVC015
     FM301600 04007KT P6SM BKN015=



000
FTUS43 KILX 291200 AAA
TAFSPI
TAF AMD
KSPI 291226Z 2912/3012 VRB03KT P6SM SKC
      TEMPO 2912/2914 5SM BR
     FM291600 34004KT P6SM SCT060=



000
FTUS43 KILX 291200 AAA
TAFPIA
TAF AMD
KPIA 291226Z 2912/3012 VRB03KT P6SM SKC
     FM291600 30006KT P6SM SCT060
     FM300800 05006KT P6SM OVC008=



000
FTUS43 KILX 291100
TAFPIA
TAF
KPIA 291125Z 2912/3012 VRB03KT P6SM SKC
      TEMPO 2912/2913 5SM BR
     FM291600 30006KT P6SM SCT060
     FM300800 05006KT P6SM OVC008=



000
FTUS43 KILX 291100
TAFDEC
TAF
KDEC 291125Z 2912/3012 VRB03KT P6SM SKC
     FM291600 34005KT P6SM SCT060=



000
FTUS43 KILX 291100
TAFBMI
TAF
KBMI 291125Z 2912/3012 VRB03KT P6SM SKC
     FM291600 32006KT P6SM SCT050
     FM300900 05008KT P6SM OVC007=



000
FTUS43 KILX 291100
TAFSPI
TAF
KSPI 291125Z 2912/3012 VRB03KT P6SM SKC
     FM291600 34004KT P6SM SCT060=



000
FTUS43 KILX 291100
TAFCMI
TAF
KCMI 291125Z 2912/3012 VRB03KT P6SM SCT250
     FM291600 35004KT P6SM SCT060
     FM301100 05008KT P6SM OVC010=



000
FTUS43 KILX 290500
TAFDEC
TAF
KDEC 290520Z 2906/3006 00000KT P6SM SKC
     FM291600 36003KT P6SM SCT060=



000
FTUS43 KILX 290500
TAFBMI
TAF
KBMI 290520Z 2906/3006 VRB03KT P6SM SKC
     FM291600 32004KT P6SM SCT050=



000
FTUS43 KILX 290500
TAFPIA
TAF
KPIA 290520Z 2906/3006 00000KT P6SM SKC
      TEMPO 2910/2913 5SM BR
     FM291600 31003KT P6SM SCT060=



000
FTUS43 KILX 290500
TAFCMI
TAF
KCMI 290520Z 2906/3006 VRB03KT P6SM SCT250
     FM291600 35004KT P6SM SCT060=



000
FTUS43 KILX 290500
TAFSPI
TAF
KSPI 290520Z 2906/3006 00000KT P6SM SKC
     FM291600 35003KT P6SM SCT060=



000
FTUS43 KILX 282300
TAFPIA
TAF
KPIA 282324Z 2900/2924 00000KT P6SM SKC
      TEMPO 2910/2913 5SM BR
     FM291600 31003KT P6SM SCT050=



000
FTUS43 KILX 282300
TAFBMI
TAF
KBMI 282324Z 2900/2924 VRB03KT P6SM SKC
     FM291600 32004KT P6SM SCT050=



000
FTUS43 KILX 282300
TAFDEC
TAF
KDEC 282324Z 2900/2924 00000KT P6SM SKC
     FM291600 36003KT P6SM SCT050=



000
FTUS43 KILX 282300
TAFCMI
TAF
KCMI 282324Z 2900/2924 VRB03KT P6SM SCT250
     FM291600 35004KT P6SM SCT050=



000
FTUS43 KILX 282300
TAFSPI
TAF
KSPI 282324Z 2900/2924 00000KT P6SM SKC
     FM291600 35003KT P6SM SCT050=



000
FTUS43 KILX 281700
TAFCMI
TAF
KCMI 281737Z 2818/2918 VRB04KT P6SM FEW060 SCT250
     FM290000 VRB03KT P6SM SCT250
     FM291600 35004KT P6SM FEW050 SCT250=



000
FTUS43 KILX 281700
TAFDEC
TAF
KDEC 281737Z 2818/2918 VRB04KT P6SM FEW060 SCT250
     FM290000 VRB02KT P6SM SCT250
     FM291600 36003KT P6SM FEW050 SCT250=



000
FTUS43 KILX 281700
TAFBMI
TAF
KBMI 281737Z 2818/2918 VRB04KT P6SM FEW060 SCT250
     FM290000 VRB03KT P6SM SCT250
     FM291600 32004KT P6SM FEW050 SCT250=



000
FTUS43 KILX 281700
TAFPIA
TAF
KPIA 281737Z 2818/2918 07003KT P6SM SCT060 SCT250
     FM290000 VRB01KT P6SM SCT250
      TEMPO 2909/2913 5SM BR
     FM291600 31003KT P6SM SCT050 SCT250=



000
FTUS43 KILX 281700
TAFSPI
TAF
KSPI 281737Z 2818/2918 VRB03KT P6SM SCT060 SCT250
     FM290000 VRB01KT P6SM SCT250
     FM291600 35003KT P6SM SCT050 SCT250=



000
FTUS43 KILX 281100 AAA
TAFBMI
TAF AMD
KBMI 281129Z 2811/2906 09004KT P6SM SKC
     FM281400 06005KT P6SM SCT045=



000
FTUS43 KILX 281100 AAA
TAFDEC
TAF AMD
KDEC 281129Z 2811/2906 06003KT P6SM SKC
     FM281400 07004KT P6SM SCT050=



000
FTUS43 KILX 281100 AAA
TAFSPI
TAF AMD
KSPI 281129Z 2811/2906 VRB03KT P6SM FEW070
     FM281400 03004KT P6SM SCT050=



000
FTUS43 KILX 281100 AAA
TAFCMI
TAF AMD
KCMI 281129Z 2811/2906 07006KT P6SM SKC
     FM281400 05005KT P6SM SCT045=



000
FTUS43 KILX 281100 AAA
TAFPIA
TAF AMD
KPIA 281129Z 2811/2906 07003KT P6SM FEW070
     FM281400 VRB03KT P6SM SCT050=



000
FTUS43 KILX 280500
TAFDEC
TAF
KDEC 280520Z 2806/2906 VRB03KT P6SM SKC
     FM281000 VRB03KT 5SM BR SKC
     FM281300 07004KT P6SM SCT050=



000
FTUS43 KILX 280500
TAFBMI
TAF
KBMI 280520Z 2806/2906 08006KT P6SM SKC
     FM281100 08004KT 5SM BR SKC
     FM281300 06005KT P6SM SCT045=



000
FTUS43 KILX 280500
TAFSPI
TAF
KSPI 280520Z 2806/2906 VRB03KT P6SM SKC
     FM281000 VRB03KT 5SM BR SKC
     FM281300 09004KT P6SM SCT050=



000
FTUS43 KILX 280500
TAFPIA
TAF
KPIA 280520Z 2806/2906 07005KT P6SM SKC
     FM281100 VRB02KT 5SM BR SKC
     FM281300 VRB03KT P6SM SCT050=



000
FTUS43 KILX 280500
TAFCMI
TAF
KCMI 280520Z 2806/2906 07006KT P6SM SKC
     FM281100 VRB03KT 5SM BR SKC
     FM281300 05005KT P6SM SCT045=



000
FTUS43 KILX 272300
TAFCMI
TAF
KCMI 272321Z 2800/2824 VRB03KT P6SM SCT250
     FM281000 VRB03KT 5SM BR SKC
     FM281300 05005KT P6SM SCT045=



000
FTUS43 KILX 272300
TAFPIA
TAF
KPIA 272321Z 2800/2824 11003KT P6SM BKN250
     FM281000 VRB02KT 5SM BR SKC
     FM281300 VRB03KT P6SM SCT050=



000
FTUS43 KILX 272300
TAFDEC
TAF
KDEC 272321Z 2800/2824 VRB03KT P6SM BKN250
     FM281000 VRB03KT 5SM BR SKC
     FM281300 07004KT P6SM SCT050=



000
FTUS43 KILX 272300
TAFSPI
TAF
KSPI 272321Z 2800/2824 VRB03KT P6SM BKN250
     FM281000 VRB03KT 5SM BR SKC
     FM281300 09004KT P6SM SCT050=



000
FTUS43 KILX 272300
TAFBMI
TAF
KBMI 272321Z 2800/2824 10004KT P6SM BKN250
     FM281000 09004KT 5SM BR SKC
     FM281300 09005KT P6SM SCT045=



000
FTUS43 KILX 272100 AAA
TAFPIA
TAF AMD
KPIA 272107Z 2721/2818 07004KT P6SM FEW050 SCT250
     FM280000 11003KT P6SM SCT250
     FM280900 VRB02KT 5SM BR SCT250
     FM281400 VRB03KT P6SM FEW050 SCT250=



000
FTUS43 KILX 272100 AAA
TAFSPI
TAF AMD
KSPI 272107Z 2721/2818 VRB04KT P6SM FEW050 SCT250
     FM280000 VRB02KT P6SM SCT250
      TEMPO 2809/2813 5SM BR=



    US Dept of Commerce
    National Oceanic and Atmospheric Administration
    National Weather Service
    1325 East West Highway
    Silver Spring, MD 20910
    Page Author: NWS Internet Services Team
Disclaimer
Information Quality
Credits
Glossary
Privacy Policy
Freedom of Information Act (FOIA)
About Us
Career Opportunities